Hawkesbury, Canada
Current Conditions -  °F | °C
As of 8:10 AM on Wednesday 22 Oct 2014 (Local Time) from CYMX Reporting Station
Rain Showers Rain Showers  
Wind Chill: 39°   Ceiling: 3900
Heat Index: 45°   Visibility: 15mi
Dew Point: 32°   Wind: 10mph
Humidity: 61%   Direction: 50°NE
Pressure: 30.28"   Gusts: 22mph
Location:  45.61°N, 74.61°W
Report Text: CYMX 221210Z 05009G19KT 340V080 15SM -SHRA FEW021 OVC039 07/M00 A3028 RMK SC1SC7 SLP256
Loading
Personal Weather Stations






























Interactive Weather Map
Tropical Storm Tracking
New forecast layout! Learn more

10-Day Weather Forecast

Advertisements
Track Severe Weather on mobile